Time;durP1;ratioP1;P1;durP2;ratioP2;P2;SDS_P1;SDS_P2;PMS_P1;PMS_P2;Temp;Humidity;BMP_temperature;BMP_pressure;BME280_temperature;BME280_humidity;BME280_pressure;Samples;Min_cycle;Max_cycle;Signal;HPM_P1;HPM_P2
2023/06/18 00:01:20;;;;;;;2.03;1.83;;;;;;;19.36;55.83;95300.94;4347968;32;20257;-63
2023/06/18 00:03:49;;;;;;;3.47;2.97;;;;;;;19.37;56.17;95305.19;4298961;32;20280;-62
2023/06/18 00:06:16;;;;;;;2.20;1.67;;;;;;;19.47;56.11;95307.38;4354274;32;20192;-62
2023/06/18 00:08:42;;;;;;;3.87;3.47;;;;;;;19.44;56.17;95305.37;4367449;32;20250;-63
2023/06/18 00:11:09;;;;;;;2.53;2.33;;;;;;;19.43;55.29;95303.81;4358678;32;20188;-62
2023/06/18 00:13:47;;;;;;;2.57;2.47;;;;;;;19.44;56.70;95305.37;4377154;32;20179;-62
2023/06/18 00:16:13;;;;;;;2.20;2.10;;;;;;;19.50;56.21;95310.16;4360274;32;20188;-62
2023/06/18 00:18:40;;;;;;;3.10;2.90;;;;;;;19.44;56.16;95308.84;4312558;32;20267;-62
2023/06/18 00:21:26;;;;;;;2.47;2.27;;;;;;;19.42;55.81;95304.94;4325184;32;20193;-61
2023/06/18 00:23:52;;;;;;;3.07;2.80;;;;;;;19.49;55.58;95305.09;4333293;32;20257;-62
2023/06/18 00:26:26;;;;;;;1.83;1.73;;;;;;;19.27;56.77;95298.44;4331650;32;20201;-62
2023/06/18 00:28:52;;;;;;;2.27;2.17;;;;;;;19.31;56.43;95307.38;4356140;32;20294;-62
2023/06/18 00:31:19;;;;;;;1.97;1.87;;;;;;;19.16;57.01;95308.94;4363771;32;20256;-62
2023/06/18 00:33:46;;;;;;;2.13;2.03;;;;;;;19.13;56.66;95304.25;4372522;32;20187;-62
2023/06/18 00:36:12;;;;;;;2.10;2.00;;;;;;;19.35;57.44;95296.69;4370583;32;20216;-62
2023/06/18 00:38:51;;;;;;;2.03;1.93;;;;;;;19.21;57.04;95297.16;4374297;32;20212;-62
2023/06/18 00:41:27;;;;;;;4.77;3.27;;;;;;;19.35;56.83;95292.09;4368939;32;20211;-62
2023/06/18 00:43:57;;;;;;;2.50;2.40;;;;;;;19.33;56.88;95301.66;4369594;32;20235;-61
2023/06/18 00:46:26;;;;;;;2.53;2.10;;;;;;;19.34;56.94;95297.81;4377108;32;20240;-62
2023/06/18 00:48:59;;;;;;;3.07;2.77;;;;;;;19.34;56.77;95292.44;4350812;32;20334;-62
2023/06/18 00:51:28;;;;;;;1.93;1.83;;;;;;;19.28;56.97;95294.62;4369800;32;20207;-62
2023/06/18 00:54:00;;;;;;;3.00;2.90;;;;;;;19.20;57.44;95288.28;4367955;32;20189;-62
2023/06/18 00:56:29;;;;;;;2.37;2.27;;;;;;;19.14;57.36;95299.66;4328677;32;20197;-61
2023/06/18 00:58:59;;;;;;;3.47;2.33;;;;;;;19.03;56.94;95296.72;4351827;32;20188;-62
2023/06/18 01:02:08;;;;;;;3.83;2.90;;;;;;;19.10;57.61;95296.13;4325404;32;20270;-62
2023/06/18 01:04:40;;;;;;;2.93;2.33;;;;;;;19.22;57.66;95285.25;4316465;32;20298;-61
2023/06/18 01:07:13;;;;;;;2.37;2.27;;;;;;;19.12;57.80;95294.62;4342226;32;20247;-62
2023/06/18 01:09:40;;;;;;;1.97;1.87;;;;;;;19.19;57.36;95286.72;4326693;32;20196;-62
2023/06/18 01:12:07;;;;;;;2.60;2.40;;;;;;;19.07;57.72;95284.16;4322299;32;20323;-61
2023/06/18 01:14:33;;;;;;;3.03;2.83;;;;;;;19.06;58.69;95281.81;4350297;32;20188;-62
2023/06/18 01:17:02;;;;;;;1.60;1.60;;;;;;;18.93;58.32;95283.78;4324946;32;20208;-61
2023/06/18 01:19:56;;;;;;;2.13;2.03;;;;;;;18.86;57.93;95283.63;4370996;32;20294;-62
2023/06/18 01:22:26;;;;;;;1.77;1.67;;;;;;;18.93;57.78;95289.16;4322084;32;20189;-62
2023/06/18 01:25:14;;;;;;;2.63;2.43;;;;;;;18.97;58.97;95291.94;4311282;32;20212;-61
2023/06/18 01:27:50;;;;;;;2.77;2.67;;;;;;;18.85;58.85;95282.06;4333462;32;20228;-62
2023/06/18 01:30:17;;;;;;;2.03;1.93;;;;;;;18.79;59.02;95288.81;4379648;32;20260;-62
2023/06/18 01:32:42;;;;;;;1.40;1.40;;;;;;;18.76;58.74;95286.81;4355026;32;20270;-62
2023/06/18 01:35:15;;;;;;;1.60;1.60;;;;;;;18.69;58.66;95283.97;4384393;32;20184;-62
2023/06/18 01:38:16;;;;;;;2.93;2.70;;;;;;;18.73;58.84;95284.81;4328754;32;20252;-62
2023/06/18 01:40:51;;;;;;;1.87;1.77;;;;;;;18.76;59.30;95284.13;4333195;32;20193;-62
2023/06/18 01:43:50;;;;;;;1.63;1.53;;;;;;;18.75;58.28;95279.88;4371687;32;20188;-62
2023/06/18 01:46:58;;;;;;;3.67;2.97;;;;;;;18.80;58.25;95285.00;4342067;32;20195;-62
2023/06/18 01:49:26;;;;;;;1.60;1.60;;;;;;;18.64;58.64;95282.31;4370245;32;20212;-62
2023/06/18 01:52:05;;;;;;;2.40;2.30;;;;;;;18.71;58.34;95289.75;4356148;32;20180;-62
2023/06/18 01:54:41;;;;;;;2.17;2.03;;;;;;;18.75;58.72;95287.94;4369471;32;20280;-62
2023/06/18 01:57:07;;;;;;;2.50;2.30;;;;;;;18.78;59.03;95285.34;4343108;32;20180;-62
2023/06/18 01:59:39;;;;;;;3.33;2.57;;;;;;;18.71;59.39;95289.75;4368552;32;20197;-62
2023/06/18 02:02:15;;;;;;;2.53;2.43;;;;;;;18.70;58.85;95277.47;4345464;32;20203;-62
2023/06/18 02:04:44;;;;;;;3.30;3.10;;;;;;;18.74;59.70;95281.78;4333219;32;20189;-62
2023/06/18 02:07:14;;;;;;;2.43;2.33;;;;;;;18.49;58.98;95286.53;4352542;32;20189;-62
2023/06/18 02:09:40;;;;;;;2.30;2.07;;;;;;;18.41;58.68;95289.34;4368202;32;20245;-62
2023/06/18 02:12:06;;;;;;;2.30;2.20;;;;;;;18.35;59.18;95285.34;4369035;32;20184;-62
2023/06/18 02:14:31;;;;;;;2.60;2.50;;;;;;;18.46;60.11;95289.09;4376274;32;20261;-61
2023/06/18 02:17:02;;;;;;;2.33;2.17;;;;;;;18.45;60.25;95291.00;4329102;32;20220;-62
2023/06/18 02:19:31;;;;;;;2.13;2.00;;;;;;;18.38;60.10;95296.19;4359957;32;20180;-61
2023/06/18 02:21:57;;;;;;;2.53;2.30;;;;;;;18.51;59.11;95289.63;4327649;32;20231;-62
2023/06/18 02:24:31;;;;;;;2.57;2.47;;;;;;;18.54;59.34;95290.84;4299149;32;20221;-61
2023/06/18 02:27:21;;;;;;;2.33;2.23;;;;;;;18.44;59.77;95283.28;4366072;32;20202;-62
2023/06/18 02:29:47;;;;;;;2.97;2.40;;;;;;;18.44;58.43;95285.97;4284869;32;20193;-64
2023/06/18 02:32:16;;;;;;;1.67;1.67;;;;;;;18.39;59.57;95284.31;4313099;32;20204;-64
2023/06/18 02:34:50;;;;;;;2.27;2.17;;;;;;;18.43;58.91;95282.50;4318090;32;20206;-64
2023/06/18 02:37:21;;;;;;;1.83;1.73;;;;;;;18.45;59.64;95284.84;4330818;32;20271;-64
2023/06/18 02:39:54;;;;;;;1.83;1.73;;;;;;;18.45;58.92;95282.16;4335294;32;20201;-64
2023/06/18 02:42:20;;;;;;;1.87;1.77;;;;;;;18.39;59.01;95283.53;4385672;32;20196;-64
2023/06/18 02:44:54;;;;;;;1.90;1.80;;;;;;;18.35;59.54;95274.59;4343042;32;20192;-64
2023/06/18 02:47:19;;;;;;;2.43;2.33;;;;;;;18.34;58.03;95279.19;4325573;32;20193;-64
2023/06/18 02:49:55;;;;;;;2.20;2.10;;;;;;;18.41;59.11;95284.75;4391154;32;20235;-64
2023/06/18 02:52:21;;;;;;;2.90;2.70;;;;;;;18.22;59.42;95281.94;4355058;32;20188;-64
2023/06/18 02:54:46;;;;;;;2.00;1.90;;;;;;;18.36;59.23;95276.94;4310132;32;20190;-64
2023/06/18 02:57:14;;;;;;;2.63;2.20;;;;;;;18.36;58.74;95284.22;4342197;32;20228;-64
2023/06/18 02:59:41;;;;;;;1.73;1.73;;;;;;;18.35;59.02;95280.75;4308098;32;20182;-64
2023/06/18 03:02:14;;;;;;;2.40;2.30;;;;;;;18.29;59.47;95284.06;4343126;32;20274;-64
2023/06/18 03:04:42;;;;;;;2.40;2.30;;;;;;;18.26;59.07;95280.12;4373237;32;20200;-64
2023/06/18 03:07:17;;;;;;;1.60;1.60;;;;;;;18.12;59.57;95282.41;4393121;32;20184;-64
2023/06/18 03:09:43;;;;;;;1.43;1.43;;;;;;;18.32;59.82;95281.44;4378243;32;20223;-64
2023/06/18 03:12:11;;;;;;;2.77;2.37;;;;;;;18.14;59.61;95280.19;4376989;32;20238;-64
2023/06/18 03:14:39;;;;;;;1.47;1.40;;;;;;;18.30;59.10;95283.69;4335139;32;20207;-64
2023/06/18 03:17:06;;;;;;;1.97;1.87;;;;;;;18.26;58.41;95277.44;4362930;32;20195;-64
2023/06/18 03:19:34;;;;;;;2.57;2.40;;;;;;;18.24;59.18;95284.28;4314007;32;20424;-64
2023/06/18 03:22:05;;;;;;;1.57;1.57;;;;;;;18.09;58.95;95288.47;4369122;32;20195;-64
2023/06/18 03:24:34;;;;;;;2.07;1.97;;;;;;;18.11;59.29;95286.22;4374807;32;20256;-64
2023/06/18 03:27:03;;;;;;;2.57;2.37;;;;;;;18.09;59.05;95283.09;4346432;32;20198;-62
2023/06/18 03:29:40;;;;;;;1.93;1.83;;;;;;;18.06;58.63;95292.63;4326126;32;20282;-62
2023/06/18 03:32:08;;;;;;;3.40;2.53;;;;;;;18.12;59.68;95282.41;4317586;32;20257;-62
2023/06/18 03:34:42;;;;;;;1.87;1.73;;;;;;;18.08;58.60;95282.31;4362637;32;20195;-62
2023/06/18 03:37:11;;;;;;;2.63;2.47;;;;;;;17.99;58.56;95275.53;4348044;32;20196;-62
2023/06/18 03:39:47;;;;;;;1.97;1.80;;;;;;;18.02;58.75;95277.56;4360104;32;20207;-62
2023/06/18 03:42:12;;;;;;;2.13;2.03;;;;;;;17.92;58.15;95265.38;4361953;32;20307;-62
2023/06/18 03:44:39;;;;;;;2.13;2.00;;;;;;;18.00;57.68;95274.41;4365857;32;20197;-62
2023/06/18 03:47:16;;;;;;;0.90;0.90;;;;;;;17.94;59.15;95268.50;4305149;32;20189;-62
2023/06/18 03:49:41;;;;;;;2.20;2.10;;;;;;;17.90;59.24;95275.66;4327708;32;20193;-62
2023/06/18 03:52:16;;;;;;;4.83;1.70;;;;;;;17.89;60.26;95284.06;4336707;32;20219;-62
2023/06/18 03:54:46;;;;;;;2.10;2.00;;;;;;;17.82;59.59;95280.06;4344860;32;20230;-64
2023/06/18 03:57:12;;;;;;;2.90;2.67;;;;;;;18.03;59.13;95287.16;4340294;32;20192;-64
2023/06/18 03:59:37;;;;;;;2.03;1.93;;;;;;;17.99;59.54;95280.91;4345415;32;20245;-64
2023/06/18 04:02:15;;;;;;;1.90;1.80;;;;;;;17.97;59.26;95277.78;4371948;32;20195;-64
2023/06/18 04:04:41;;;;;;;1.93;1.83;;;;;;;17.84;59.15;95271.69;4356958;32;20311;-65
2023/06/18 04:07:08;;;;;;;1.57;1.57;;;;;;;17.96;58.66;95274.31;4321817;32;20302;-63
2023/06/18 04:09:36;;;;;;;2.47;2.37;;;;;;;17.95;59.53;95280.03;4367742;32;20181;-62
2023/06/18 04:12:03;;;;;;;1.73;1.63;;;;;;;18.03;59.15;95279.12;4342144;32;20279;-62
2023/06/18 04:14:29;;;;;;;2.17;2.07;;;;;;;17.99;58.96;95283.59;4360702;32;20200;-62
2023/06/18 04:16:55;;;;;;;2.00;1.90;;;;;;;17.94;58.94;95284.63;4322927;32;20219;-62
2023/06/18 04:19:21;;;;;;;1.50;1.33;;;;;;;17.99;58.70;95279.00;4341524;32;20287;-62
2023/06/18 04:21:56;;;;;;;1.70;1.60;;;;;;;18.03;58.01;95282.59;4363860;32;20204;-62
2023/06/18 04:24:49;;;;;;;1.40;1.40;;;;;;;18.12;58.97;95287.78;4369368;32;20309;-62
2023/06/18 04:27:14;;;;;;;1.70;1.60;;;;;;;18.00;59.22;95285.94;4369634;32;20199;-62
2023/06/18 04:29:41;;;;;;;2.40;1.90;;;;;;;18.10;58.17;95281.97;4385262;32;20185;-62
2023/06/18 04:32:13;;;;;;;1.70;1.60;;;;;;;18.09;58.21;95283.09;4367009;32;20187;-62
2023/06/18 04:34:43;;;;;;;2.03;1.93;;;;;;;18.09;59.01;95288.47;4363833;32;20228;-62
2023/06/18 04:37:09;;;;;;;2.20;2.10;;;;;;;18.14;58.25;95290.91;4363931;32;20188;-62
2023/06/18 04:39:38;;;;;;;2.33;2.20;;;;;;;18.22;58.52;95281.94;4341246;32;20271;-62
2023/06/18 04:42:12;;;;;;;4.17;1.83;;;;;;;18.18;58.91;95289.91;4356002;32;20209;-62
2023/06/18 04:44:39;;;;;;;2.17;2.07;;;;;;;18.23;58.60;95290.78;4316651;32;20211;-61
2023/06/18 04:47:10;;;;;;;1.93;1.83;;;;;;;18.19;57.68;95293.38;4336680;32;20191;-62
2023/06/18 04:49:38;;;;;;;1.97;1.87;;;;;;;18.17;58.16;95288.34;4348134;32;20227;-61
2023/06/18 04:52:04;;;;;;;1.37;1.37;;;;;;;18.32;57.98;95294.09;4333941;32;20184;-62
2023/06/18 04:54:29;;;;;;;1.43;1.33;;;;;;;18.37;58.98;95283.09;4335296;32;20247;-62
2023/06/18 04:56:59;;;;;;;1.80;1.70;;;;;;;18.39;58.50;95281.63;4341657;32;20276;-61
2023/06/18 04:59:27;;;;;;;1.70;1.70;;;;;;;18.44;58.51;95286.75;4358139;32;20254;-61
2023/06/18 05:01:54;;;;;;;2.03;1.93;;;;;;;18.22;58.28;95292.69;4380054;32;20168;-62
2023/06/18 05:04:28;;;;;;;2.17;1.97;;;;;;;18.39;58.17;95296.97;4355934;32;20278;-62
2023/06/18 05:06:59;;;;;;;2.77;2.53;;;;;;;18.48;58.12;95290.34;4360798;32;20192;-62
2023/06/18 05:09:31;;;;;;;2.63;2.43;;;;;;;18.53;59.15;95297.34;4345057;32;20262;-62
2023/06/18 05:12:20;;;;;;;1.60;1.50;;;;;;;18.42;58.22;95297.06;4342679;32;20207;-62
2023/06/18 05:14:46;;;;;;;1.90;1.80;;;;;;;18.50;58.55;95298.03;4287705;32;20213;-62
2023/06/18 05:17:15;;;;;;;1.63;1.63;;;;;;;18.54;57.92;95305.06;4337510;32;20214;-61
2023/06/18 05:19:43;;;;;;;1.63;1.53;;;;;;;18.56;58.72;95304.72;4362683;32;20211;-62
2023/06/18 05:22:10;;;;;;;2.00;1.90;;;;;;;18.65;58.72;95302.69;4304823;32;20205;-62
2023/06/18 05:24:36;;;;;;;2.57;2.10;;;;;;;18.68;57.89;95303.91;4338902;32;20234;-62
2023/06/18 05:27:03;;;;;;;2.07;1.90;;;;;;;18.65;59.05;95302.69;4332139;32;20286;-62
2023/06/18 05:29:38;;;;;;;2.40;2.30;;;;;;;18.69;58.41;95306.25;4356262;32;20185;-62
2023/06/18 05:32:07;;;;;;;1.07;1.07;;;;;;;18.78;57.51;95308.75;4343089;32;20280;-62
2023/06/18 05:34:32;;;;;;;1.80;1.70;;;;;;;18.90;58.59;95311.41;4332995;32;20275;-62
2023/06/18 05:37:00;;;;;;;3.97;2.13;;;;;;;18.77;58.49;95309.88;4325554;32;20213;-61
2023/06/18 05:39:30;;;;;;;4.17;1.47;;;;;;;18.87;58.40;95312.84;4362064;32;20193;-62
2023/06/18 05:41:59;;;;;;;2.27;2.10;;;;;;;18.89;58.38;95315.22;4325965;32;20201;-62
2023/06/18 05:44:32;;;;;;;2.13;2.03;;;;;;;19.02;59.27;95315.91;4361312;32;20197;-62
2023/06/18 05:47:03;;;;;;;2.47;2.27;;;;;;;18.96;58.48;95315.38;4334182;32;20259;-62
2023/06/18 05:49:39;;;;;;;11.43;2.70;;;;;;;19.04;59.82;95317.12;4363307;32;20234;-62
2023/06/18 05:52:07;;;;;;;3.40;3.17;;;;;;;19.19;58.43;95321.69;4369612;32;20196;-62
2023/06/18 05:54:33;;;;;;;2.20;2.10;;;;;;;19.14;57.83;95316.56;4383053;32;20256;-62
2023/06/18 05:57:07;;;;;;;2.43;2.27;;;;;;;19.18;55.76;95327.44;4369675;32;20208;-62
2023/06/18 05:59:35;;;;;;;6.63;2.63;;;;;;;19.18;56.01;95322.81;4368679;32;20297;-62
2023/06/18 06:02:02;;;;;;;2.27;2.07;;;;;;;19.30;56.49;95337.31;4377801;32;20233;-62
2023/06/18 06:04:42;;;;;;;1.43;1.33;;;;;;;19.38;57.40;95330.97;4386944;32;20192;-62
2023/06/18 06:07:07;;;;;;;1.90;1.83;;;;;;;19.43;55.93;95344.16;4372040;32;20180;-62
2023/06/18 06:09:34;;;;;;;7.47;1.80;;;;;;;19.45;54.46;95331.94;4384560;32;20303;-62
2023/06/18 06:12:02;;;;;;;2.43;2.23;;;;;;;19.47;55.72;95332.38;4364365;32;20234;-62
2023/06/18 06:14:36;;;;;;;3.27;2.97;;;;;;;19.54;56.30;95332.53;4341542;32;20362;-62
2023/06/18 06:17:07;;;;;;;2.70;2.53;;;;;;;19.47;53.46;95328.87;4341275;32;20249;-62
2023/06/18 06:19:34;;;;;;;2.13;2.03;;;;;;;19.65;56.39;95327.41;4344854;32;20201;-62
2023/06/18 06:22:14;;;;;;;5.53;3.37;;;;;;;19.68;56.99;95326.72;4318993;32;20259;-62
2023/06/18 06:24:40;;;;;;;21.40;2.37;;;;;;;19.67;52.54;95327.06;4309246;32;20190;-62
2023/06/18 06:27:10;;;;;;;2.47;2.27;;;;;;;19.86;54.28;95327.88;4301189;32;20196;-61
2023/06/18 06:30:06;;;;;;;2.80;2.23;;;;;;;19.89;54.69;95327.19;4270551;32;21114;-62
2023/06/18 06:32:44;;;;;;;1.70;1.63;;;;;;;20.00;54.34;95329.31;4293129;32;20329;-61
2023/06/18 06:35:11;;;;;;;3.03;2.50;;;;;;;20.01;53.84;95337.03;4336364;32;20211;-62
2023/06/18 06:37:38;;;;;;;1.80;1.70;;;;;;;20.17;52.29;95326.19;4365905;32;20235;-62
2023/06/18 06:40:07;;;;;;;1.77;1.67;;;;;;;20.27;52.34;95332.94;4339077;32;20261;-62
2023/06/18 06:42:55;;;;;;;1.23;1.23;;;;;;;20.23;49.80;95333.66;4298330;32;20277;-62
2023/06/18 06:45:37;;;;;;;1.33;1.33;;;;;;;20.33;51.32;95332.31;4376222;32;20200;-61
2023/06/18 06:48:04;;;;;;;1.80;1.70;;;;;;;20.46;49.45;95325.66;4341781;32;20230;-62
2023/06/18 06:50:42;;;;;;;1.53;1.53;;;;;;;20.50;50.06;95334.59;4372913;32;20188;-62
2023/06/18 06:53:19;;;;;;;3.10;2.17;;;;;;;20.66;48.05;95333.72;4340507;32;20219;-62
2023/06/18 06:55:53;;;;;;;1.30;1.30;;;;;;;20.75;49.17;95337.00;4318889;32;20188;-63
2023/06/18 06:58:47;;;;;;;2.53;2.43;;;;;;;20.85;48.84;95322.91;4333732;32;20196;-62
2023/06/18 07:01:12;;;;;;;1.87;1.77;;;;;;;20.99;47.55;95328.53;4385305;32;20185;-62
2023/06/18 07:03:38;;;;;;;1.70;1.70;;;;;;;21.14;47.73;95335.75;4356264;32;20257;-62
2023/06/18 07:06:06;;;;;;;2.00;1.90;;;;;;;21.20;46.40;95337.00;4380285;32;20189;-62
2023/06/18 07:09:05;;;;;;;2.27;2.07;;;;;;;21.46;45.33;95343.59;4365628;32;20271;-62
2023/06/18 07:11:44;;;;;;;2.47;2.27;;;;;;;21.52;45.79;95331.34;4350060;32;20270;-62
2023/06/18 07:14:11;;;;;;;1.67;1.60;;;;;;;21.48;46.39;95330.53;4317135;32;20208;-62
2023/06/18 07:16:37;;;;;;;1.27;1.27;;;;;;;;;;4346069;32;20192;-62
2023/06/18 07:19:05;;;;;;;2.53;1.53;;;;;;;21.57;45.28;95331.84;4362035;32;20388;-62
2023/06/18 07:21:34;;;;;;;1.87;1.77;;;;;;;21.63;44.17;95340.38;4342789;32;20291;-62
2023/06/18 07:24:00;;;;;;;1.77;1.67;;;;;;;21.59;44.55;95331.47;4346116;32;20193;-62
2023/06/18 07:26:26;;;;;;;7.30;2.13;;;;;;;21.64;44.89;95333.06;4369334;32;20193;-62
2023/06/18 07:28:51;;;;;;;1.00;1.00;;;;;;;21.73;45.81;95337.06;4361106;32;20193;-62
2023/06/18 07:31:29;;;;;;;1.60;1.50;;;;;;;21.76;44.59;95339.06;4373320;32;20192;-62
2023/06/18 07:34:03;;;;;;;2.87;2.50;;;;;;;21.77;44.76;95337.91;4360811;32;20295;-62
2023/06/18 07:36:33;;;;;;;3.83;2.27;;;;;;;21.85;44.67;95330.66;4368687;32;20191;-62
2023/06/18 07:39:08;;;;;;;1.30;1.30;;;;;;;21.80;44.24;95320.97;4344914;32;20196;-62
2023/06/18 07:41:34;;;;;;;1.50;1.40;;;;;;;21.84;42.95;95321.00;4300306;32;20195;-62
2023/06/18 07:44:07;;;;;;;1.50;1.50;;;;;;;21.94;42.32;95321.16;4324611;32;20300;-62
2023/06/18 07:46:46;;;;;;;1.70;1.60;;;;;;;21.98;42.82;95315.03;4324495;32;20204;-62
2023/06/18 07:49:31;;;;;;;1.67;1.63;;;;;;;22.02;42.77;95316.69;4378796;32;20247;-62
2023/06/18 07:51:58;;;;;;;1.97;1.87;;;;;;;22.11;44.09;95317.16;4377517;32;20207;-62
2023/06/18 07:54:27;;;;;;;2.03;1.93;;;;;;;22.17;43.16;95315.69;4368250;32;20282;-62
2023/06/18 07:56:54;;;;;;;2.60;1.37;;;;;;;22.33;41.04;95314.72;4297443;32;20192;-62
2023/06/18 07:59:22;;;;;;;1.23;1.23;;;;;;;22.33;41.59;95314.72;4357398;32;20188;-62
2023/06/18 08:02:06;;;;;;;1.23;1.23;;;;;;;22.41;40.96;95316.38;4346981;32;20192;-62
2023/06/18 08:04:32;;;;;;;1.90;1.67;;;;;;;22.54;38.84;95309.56;4354452;32;20257;-62
2023/06/18 08:06:59;;;;;;;1.53;1.47;;;;;;;22.56;39.10;95313.44;4330039;32;20197;-62
2023/06/18 08:09:25;;;;;;;2.37;2.13;;;;;;;22.62;39.51;95306.56;4293363;32;20243;-62
2023/06/18 08:12:00;;;;;;;1.50;1.23;;;;;;;22.71;38.90;95313.59;4355248;32;20277;-62
2023/06/18 08:14:30;;;;;;;1.13;1.10;;;;;;;22.78;38.97;95311.00;4379879;32;20192;-62
2023/06/18 08:16:56;;;;;;;1.77;1.67;;;;;;;22.98;37.21;95304.22;4343810;32;20209;-62
2023/06/18 08:19:21;;;;;;;0.70;0.70;;;;;;;22.92;38.28;95316.53;4356686;32;20230;-62
2023/06/18 08:21:53;;;;;;;1.63;1.57;;;;;;;23.10;36.67;95303.94;4360167;32;20193;-62
2023/06/18 08:24:20;;;;;;;1.47;1.43;;;;;;;23.14;37.22;95302.03;4367860;32;20196;-62
2023/06/18 08:26:47;;;;;;;1.37;1.37;;;;;;;23.20;36.94;95297.84;4345503;32;20200;-62
2023/06/18 08:29:16;;;;;;;1.10;1.07;;;;;;;23.25;36.46;95307.56;4357023;32;20197;-62
2023/06/18 08:31:42;;;;;;;1.77;1.67;;;;;;;23.43;36.49;95305.00;4359062;32;20196;-62
2023/06/18 08:34:08;;;;;;;2.17;1.60;;;;;;;23.49;36.23;95315.06;4365843;32;20233;-63
2023/06/18 08:36:35;;;;;;;1.17;1.17;;;;;;;23.50;36.21;95305.78;4331411;32;20184;-63
2023/06/18 08:39:01;;;;;;;1.43;1.33;;;;;;;23.49;36.49;95306.94;4292688;32;20193;-63
2023/06/18 08:41:33;;;;;;;1.50;1.40;;;;;;;23.53;36.45;95304.31;4326390;32;20198;-63
2023/06/18 08:44:00;;;;;;;2.17;2.07;;;;;;;23.46;36.92;95301.53;4347519;32;20193;-63
2023/06/18 08:46:32;;;;;;;2.33;1.60;;;;;;;23.43;36.83;95305.75;4380241;32;20200;-62
2023/06/18 08:49:34;;;;;;;3.37;1.93;;;;;;;23.50;36.14;95313.16;4334541;32;20273;-63
2023/06/18 08:52:07;;;;;;;1.93;1.30;;;;;;;23.50;36.84;95305.03;4303847;32;20260;-63
2023/06/18 08:54:45;;;;;;;1.13;1.13;;;;;;;23.66;35.58;95307.50;4356275;32;20277;-63
2023/06/18 08:57:28;;;;;;;2.80;2.70;;;;;;;23.69;35.29;95304.03;4362007;32;20236;-63
2023/06/18 09:00:03;;;;;;;2.87;1.50;;;;;;;23.63;35.69;95304.38;4362398;32;20231;-63
2023/06/18 09:02:29;;;;;;;2.00;1.90;;;;;;;23.59;36.57;95300.09;4310537;32;20192;-63
2023/06/18 09:05:09;;;;;;;1.40;1.40;;;;;;;23.60;37.39;95304.38;4329419;32;20274;-62
2023/06/18 09:07:39;;;;;;;1.03;1.03;;;;;;;23.82;35.57;95300.63;4342932;32;20236;-63
2023/06/18 09:10:18;;;;;;;2.10;1.93;;;;;;;23.89;35.95;95302.62;4372162;32;20206;-63
2023/06/18 09:12:58;;;;;;;1.33;1.33;;;;;;;23.89;35.56;95297.19;4354365;32;20201;-63
2023/06/18 09:15:25;;;;;;;1.03;1.03;;;;;;;23.90;36.18;95299.50;4343056;32;20197;-63
2023/06/18 09:18:10;;;;;;;1.10;1.10;;;;;;;23.94;35.42;95296.81;4259001;32;20266;-63
2023/06/18 09:20:57;;;;;;;1.97;1.03;;;;;;;24.04;34.69;95296.09;4335752;32;20188;-63
2023/06/18 09:23:53;;;;;;;1.23;1.23;;;;;;;24.15;34.75;95296.13;4363433;32;20207;-63
2023/06/18 09:26:19;;;;;;;1.20;1.20;;;;;;;24.21;34.86;95295.41;4364144;32;20180;-63
2023/06/18 09:28:49;;;;;;;0.63;0.63;;;;;;;24.26;35.02;95297.00;4362682;32;20181;-63
2023/06/18 09:31:44;;;;;;;1.50;1.40;;;;;;;24.37;34.58;95297.81;4369736;32;20192;-62
2023/06/18 09:34:20;;;;;;;3.83;1.90;;;;;;;24.53;34.09;95295.53;4341249;32;20197;-63
2023/06/18 09:36:50;;;;;;;1.53;1.43;;;;;;;24.44;34.23;95289.69;4350040;32;20364;-63
2023/06/18 09:39:25;;;;;;;1.17;1.17;;;;;;;24.36;34.64;95296.25;4279209;32;20194;-63
2023/06/18 09:42:05;;;;;;;1.10;1.10;;;;;;;24.49;34.50;95297.47;4346401;32;20225;-63
2023/06/18 09:44:35;;;;;;;1.37;1.37;;;;;;;24.54;34.08;95290.87;4338351;32;20194;-62
2023/06/18 09:47:13;;;;;;;1.23;1.23;;;;;;;24.49;34.32;95283.13;4368028;32;20208;-63
2023/06/18 09:49:42;;;;;;;1.23;1.23;;;;;;;24.57;34.64;95285.47;4374164;32;20207;-63
2023/06/18 09:52:14;;;;;;;0.67;0.67;;;;;;;24.69;34.54;95281.63;4333100;32;20307;-62
2023/06/18 09:54:44;;;;;;;2.20;2.10;;;;;;;24.80;34.96;95287.06;4348255;32;20185;-63
2023/06/18 09:58:00;;;;;;;1.70;1.57;;;;;;;24.88;34.98;95288.63;4320081;32;20188;-62
2023/06/18 10:00:28;;;;;;;1.20;1.10;;;;;;;25.03;35.38;95290.22;4328090;32;20193;-63
2023/06/18 10:03:12;;;;;;;2.47;2.30;;;;;;;25.05;35.25;95282.47;4330616;32;20396;-63
2023/06/18 10:06:01;;;;;;;1.30;1.30;;;;;;;25.11;34.99;95286.38;4381122;32;20212;-63
2023/06/18 10:08:33;;;;;;;1.33;1.30;;;;;;;25.13;34.87;95283.28;4367837;32;20215;-63
2023/06/18 10:10:59;;;;;;;1.03;1.03;;;;;;;25.21;34.83;95284.81;4333192;32;20189;-62
2023/06/18 10:13:56;;;;;;;1.27;1.27;;;;;;;25.26;34.83;95282.47;4328350;32;20188;-62
2023/06/18 10:16:25;;;;;;;1.20;1.20;;;;;;;25.31;34.41;95281.31;4350316;32;20203;-62
2023/06/18 10:19:26;;;;;;;0.90;0.90;;;;;;;25.35;34.44;95268.53;4324646;32;20186;-62
2023/06/18 10:22:10;;;;;;;1.67;1.57;;;;;;;25.43;33.98;95280.91;4330345;32;20234;-62
2023/06/18 10:25:11;;;;;;;1.77;1.70;;;;;;;25.39;33.90;95279.34;4328610;32;20239;-62
2023/06/18 10:27:42;;;;;;;1.13;1.13;;;;;;;25.42;34.35;95273.16;4330596;32;20191;-62
2023/06/18 10:30:12;;;;;;;1.20;1.20;;;;;;;25.48;34.00;95272.38;4351625;32;20186;-62
2023/06/18 10:32:42;;;;;;;0.93;0.93;;;;;;;25.31;34.72;95276.66;4367294;32;20185;-62
2023/06/18 10:35:24;;;;;;;1.63;1.53;;;;;;;25.47;34.05;95270.03;4348863;32;20185;-62
2023/06/18 10:38:19;;;;;;;1.00;1.00;;;;;;;25.57;34.25;95274.69;4353531;32;20204;-62
2023/06/18 10:41:09;;;;;;;2.00;1.13;;;;;;;25.69;33.87;95260.72;4302044;32;20215;-63
2023/06/18 10:43:40;;;;;;;1.60;1.50;;;;;;;25.61;34.08;95268.06;4352186;32;20220;-62
2023/06/18 10:46:16;;;;;;;2.00;1.77;;;;;;;25.63;33.69;95262.28;4385887;32;20187;-62
2023/06/18 10:49:15;;;;;;;0.80;0.77;;;;;;;25.58;34.28;95259.94;4373138;32;20193;-62
2023/06/18 10:51:42;;;;;;;1.77;1.67;;;;;;;25.48;34.25;95249.88;4347062;32;20237;-62
2023/06/18 10:54:22;;;;;;;1.27;1.27;;;;;;;25.53;33.99;95255.69;4300686;32;20204;-62
2023/06/18 10:57:16;;;;;;;0.73;0.73;;;;;;;25.62;33.93;95249.81;4380434;32;20200;-62
2023/06/18 11:00:29;;;;;;;1.60;1.50;;;;;;;25.62;34.25;95255.25;4346293;32;20199;-62
2023/06/18 11:03:17;;;;;;;1.43;1.43;;;;;;;25.64;34.24;95253.75;4361559;32;20232;-62
2023/06/18 11:06:09;;;;;;;1.43;1.43;;;;;;;25.67;33.97;95252.19;4332885;32;20243;-64
2023/06/18 11:08:39;;;;;;;2.43;2.33;;;;;;;25.74;34.35;95245.97;4317979;32;20291;-62
2023/06/18 11:11:14;;;;;;;2.17;2.07;;;;;;;25.71;33.92;95241.31;4367348;32;20242;-63
2023/06/18 11:13:53;;;;;;;2.13;1.67;;;;;;;25.74;34.11;95232.38;4340652;32;20184;-62
2023/06/18 11:16:25;;;;;;;1.50;1.13;;;;;;;25.75;34.22;95231.97;4357210;32;20234;-62
2023/06/18 11:18:57;;;;;;;2.03;1.93;;;;;;;25.91;33.86;95229.59;4347918;32;20263;-62
2023/06/18 11:21:25;;;;;;;0.97;0.97;;;;;;;26.00;33.63;95232.66;4329005;32;20216;-62
2023/06/18 11:24:39;;;;;;;0.87;0.87;;;;;;;26.08;33.41;95217.09;4328397;32;20193;-62
2023/06/18 11:27:06;;;;;;;1.77;1.23;;;;;;;26.12;33.19;95223.28;4314875;32;20265;-62
2023/06/18 11:29:43;;;;;;;1.50;1.40;;;;;;;26.08;33.45;95225.25;4344917;32;20192;-62
2023/06/18 11:32:16;;;;;;;1.43;1.43;;;;;;;26.02;33.84;95224.09;4286551;32;20216;-62
2023/06/18 11:35:00;;;;;;;1.87;1.77;;;;;;;25.91;33.57;95228.81;4321201;32;20236;-62
2023/06/18 11:37:34;;;;;;;1.70;1.70;;;;;;;25.84;34.10;95218.72;4285231;32;20352;-62
2023/06/18 11:40:08;;;;;;;1.37;1.37;;;;;;;25.78;34.11;95219.53;4363484;32;20184;-62
2023/06/18 11:42:46;;;;;;;1.73;1.63;;;;;;;25.76;34.04;95217.22;4336670;32;20252;-62
2023/06/18 11:45:13;;;;;;;2.57;1.20;;;;;;;26.03;33.68;95214.78;4296262;32;20263;-63
2023/06/18 11:47:57;;;;;;;1.30;0.93;;;;;;;26.07;33.57;95210.09;4375692;32;20248;-62
2023/06/18 11:50:27;;;;;;;1.53;0.80;;;;;;;26.13;33.87;95207.75;4365722;32;20293;-62
2023/06/18 11:53:04;;;;;;;2.57;2.07;;;;;;;26.10;33.95;95209.31;4381355;32;20215;-62
2023/06/18 11:55:38;;;;;;;1.13;1.13;;;;;;;25.99;33.54;95203.12;4343676;32;20197;-62
2023/06/18 11:58:05;;;;;;;1.27;1.27;;;;;;;26.15;33.56;95205.41;4361208;32;20204;-63
2023/06/18 12:00:39;;;;;;;2.00;1.90;;;;;;;26.06;33.77;95199.63;4324886;32;20263;-62
2023/06/18 12:03:27;;;;;;;1.13;1.13;;;;;;;25.98;34.18;95186.03;4326880;32;20193;-62